createdAt,value
2023-05-24T03:32:46.023Z,241.90
2023-05-24T03:36:49.005Z,242.00
2023-05-24T03:40:53.332Z,241.90
2023-05-24T03:44:56.364Z,241.90
2023-05-24T03:48:59.461Z,241.65
2023-05-24T03:53:02.594Z,242.50
2023-05-24T03:57:07.483Z,242.45
2023-05-24T04:01:22.005Z,240.10
2023-05-24T04:05:32.552Z,241.45
2023-05-24T04:09:35.621Z,241.17
2023-05-24T04:13:39.960Z,241.75
2023-05-24T04:17:43.833Z,241.30
2023-05-24T04:21:47.023Z,240.33
2023-05-24T04:25:50.193Z,240.60
2023-05-24T04:29:54.673Z,239.80
2023-05-24T04:33:59.147Z,240.35
2023-05-24T04:38:02.152Z,239.80
2023-05-24T04:42:05.466Z,237.43
2023-05-24T04:46:10.025Z,238.10
2023-05-24T04:50:13.172Z,236.80
2023-05-24T04:54:18.147Z,238.20
2023-05-24T04:58:21.214Z,254.10
2023-05-24T05:02:26.563Z,254.55
2023-05-24T05:06:29.584Z,256.45
2023-05-24T05:10:32.610Z,254.30
2023-05-24T05:14:35.784Z,252.30
2023-05-24T05:18:42.892Z,251.70
2023-05-24T05:22:50.672Z,254.50
2023-05-24T05:26:53.881Z,253.20
2023-05-24T05:30:57.088Z,252.30
2023-05-24T05:35:01.478Z,253.35
2023-05-24T05:39:04.628Z,254.90
2023-05-24T05:43:08.541Z,252.77
2023-05-24T05:47:12.137Z,253.27
2023-05-24T05:51:16.572Z,248.85
2023-05-24T05:55:19.699Z,253.10
2023-05-24T05:59:22.678Z,253.50
2023-05-24T06:03:25.919Z,250.60
2023-05-24T06:07:30.683Z,253.97
2023-05-24T06:11:33.867Z,252.50
2023-05-24T06:15:38.122Z,252.70
2023-05-24T06:19:41.191Z,251.25
2023-05-24T06:23:45.578Z,251.05
2023-05-24T06:27:48.808Z,251.30
2023-05-24T06:31:53.976Z,251.35
2023-05-24T06:35:57.150Z,250.68
2023-05-24T06:40:01.543Z,252.60
2023-05-24T06:44:04.755Z,249.35
2023-05-24T06:48:08.222Z,250.80
2023-05-24T06:52:11.533Z,251.20
2023-05-24T06:56:16.764Z,249.50
2023-05-24T07:00:20.542Z,250.95
2023-05-24T07:04:24.301Z,249.40
2023-05-24T07:08:27.602Z,249.37
2023-05-24T07:12:32.553Z,251.63
2023-05-24T07:16:35.623Z,249.65
2023-05-24T07:20:38.870Z,250.60
2023-05-24T07:24:41.900Z,248.70
2023-05-24T07:28:46.448Z,247.40
2023-05-24T07:32:49.636Z,249.40
2023-05-24T07:36:52.726Z,248.80
2023-05-24T07:40:55.764Z,248.90
2023-05-24T07:45:00.121Z,250.20
2023-05-24T07:49:03.118Z,249.80
2023-05-24T07:53:07.322Z,250.25
2023-05-24T07:57:10.608Z,252.30
2023-05-24T08:01:15.806Z,247.95
2023-05-24T08:05:19.030Z,250.20
2023-05-24T08:09:22.657Z,250.40
2023-05-24T08:13:25.682Z,248.20
2023-05-24T08:17:30.885Z,247.90
2023-05-24T08:21:34.895Z,248.45
2023-05-24T08:25:38.073Z,248.90
2023-05-24T08:29:41.606Z,247.10
2023-05-24T08:33:50.258Z,246.40
2023-05-24T08:37:53.358Z,247.50
2023-05-24T08:42:08.495Z,247.10
2023-05-24T08:46:15.255Z,246.50
2023-05-24T08:50:20.649Z,248.20
2023-05-24T08:54:23.948Z,247.25
2023-05-24T08:58:27.293Z,247.00
2023-05-24T09:02:31.446Z,247.40
2023-05-24T09:06:36.078Z,246.80
2023-05-24T09:10:52.818Z,243.50
2023-05-24T09:14:58.559Z,232.20
2023-05-24T09:19:01.724Z,224.13
2023-05-24T09:23:07.618Z,225.90
2023-05-24T09:27:10.975Z,225.05
2023-05-24T09:31:14.114Z,223.60
2023-05-24T09:35:17.279Z,224.30
2023-05-24T09:39:22.816Z,223.60
2023-05-24T09:43:26.583Z,224.80
2023-05-24T09:47:30.842Z,226.20
2023-05-24T09:51:37.675Z,222.40
2023-05-24T09:55:42.072Z,226.00
2023-05-24T09:59:45.330Z,224.90
2023-05-24T10:03:55.219Z,225.50
2023-05-24T10:07:59.610Z,224.90
2023-05-24T10:12:08.887Z,224.60
2023-05-24T10:16:12.046Z,225.37
2023-05-24T10:20:15.560Z,223.70
2023-05-24T10:24:22.856Z,221.10
2023-05-24T10:28:28.506Z,221.40
2023-05-24T10:32:35.008Z,226.30
2023-05-24T10:36:40.616Z,225.20
2023-05-24T10:40:44.342Z,225.70
2023-05-24T10:44:48.706Z,225.10
2023-05-24T10:49:01.650Z,223.80
2023-05-24T10:53:13.855Z,222.10
2023-05-24T10:57:24.487Z,222.40
2023-05-24T11:01:29.789Z,221.50
2023-05-24T11:05:37.282Z,220.35
2023-05-24T11:09:46.176Z,220.25
2023-05-24T11:13:49.514Z,218.00
2023-05-24T11:18:16.169Z,220.60
2023-05-24T11:22:21.131Z,218.98
2023-05-24T11:26:24.282Z,219.40
2023-05-24T11:30:27.345Z,220.45
2023-05-24T11:34:33.045Z,228.95
2023-05-24T11:38:36.735Z,241.27
2023-05-24T11:42:39.790Z,238.40
2023-05-24T11:46:44.930Z,241.13
2023-05-24T11:54:55.057Z,242.80
2023-05-24T11:59:06.124Z,242.43
2023-05-24T12:03:10.425Z,240.80
2023-05-24T12:11:17.924Z,242.57
2023-05-24T12:15:22.287Z,242.30
2023-05-24T12:23:37.329Z,244.53
2023-05-24T12:27:47.827Z,245.20
2023-05-24T12:31:51.445Z,241.20
2023-05-24T12:35:56.368Z,245.60
2023-05-24T12:40:01.606Z,244.17
2023-05-24T12:44:04.715Z,244.95
2023-05-24T12:48:08.817Z,247.70
2023-05-24T12:52:12.643Z,248.65
2023-05-24T12:56:17.210Z,247.10
2023-05-24T13:00:21.276Z,248.00
2023-05-24T13:04:26.394Z,244.90
2023-05-24T13:08:30.237Z,244.90
2023-05-24T13:12:34.714Z,247.00
2023-05-24T13:16:37.748Z,246.00
2023-05-24T13:20:41.049Z,245.00
2023-05-24T13:24:44.438Z,253.10
2023-05-24T13:29:15.216Z,247.50
2023-05-24T13:33:11.804Z,247.35
2023-05-24T13:37:16.356Z,247.60
2023-05-24T13:41:20.048Z,245.33
2023-05-24T13:45:24.480Z,246.60
2023-05-24T13:49:27.774Z,245.40
2023-05-24T13:53:31.170Z,244.90
2023-05-24T13:57:50.369Z,247.20
2023-05-24T14:01:56.162Z,247.60
2023-05-24T14:05:59.311Z,246.33
2023-05-24T14:10:02.821Z,247.20
2023-05-24T14:18:13.396Z,247.13
2023-05-24T14:22:16.487Z,248.75
2023-05-24T14:26:20.237Z,249.07
2023-05-24T14:30:23.348Z,249.15
2023-05-24T14:34:27.732Z,247.55
2023-05-24T14:38:30.792Z,248.55
2023-05-24T14:42:33.815Z,254.70
2023-05-24T14:46:36.968Z,248.70
2023-05-24T14:50:42.471Z,252.90
2023-05-24T14:54:45.868Z,250.00
2023-05-24T14:58:48.879Z,250.73
2023-05-24T15:02:52.159Z,247.60
2023-05-24T15:06:57.051Z,246.15
2023-05-24T15:11:00.179Z,245.85
2023-05-24T15:15:03.235Z,247.20
2023-05-24T15:19:06.296Z,244.45
2023-05-24T15:23:11.166Z,248.45
2023-05-24T15:27:14.215Z,252.50
2023-05-24T15:31:17.320Z,245.85
2023-05-24T15:35:20.312Z,250.15
2023-05-24T15:39:24.675Z,243.65
2023-05-24T15:43:27.765Z,244.53
2023-05-24T15:47:36.320Z,247.15
2023-05-24T15:55:47.332Z,244.20
2023-05-24T15:59:50.688Z,248.98
2023-05-24T16:03:53.987Z,248.13
2023-05-24T16:07:57.258Z,244.10
2023-05-24T16:12:01.696Z,250.35
2023-05-24T16:16:04.728Z,241.45
2023-05-24T16:20:08.742Z,248.52
2023-05-24T16:24:11.761Z,246.10
2023-05-24T16:28:16.148Z,243.97
2023-05-24T16:32:19.145Z,247.45
2023-05-24T16:36:22.242Z,245.95
2023-05-24T16:40:25.261Z,247.05
2023-05-24T16:44:29.704Z,244.20
2023-05-24T16:48:32.729Z,244.37
2023-05-24T16:52:35.781Z,247.30
2023-05-24T16:56:38.887Z,244.90
2023-05-24T17:00:43.440Z,246.07
2023-05-24T17:04:46.604Z,244.77
2023-05-24T17:08:49.645Z,244.70
2023-05-24T17:12:53.307Z,244.95
2023-05-24T17:16:57.657Z,247.25
2023-05-24T17:21:01.586Z,245.00
2023-05-24T17:25:04.778Z,245.57
2023-05-24T17:29:07.776Z,246.60
2023-05-24T17:33:12.248Z,245.15
2023-05-24T17:37:15.323Z,245.90
2023-05-24T17:41:18.354Z,247.30
2023-05-24T17:45:21.368Z,246.95
2023-05-24T17:49:26.483Z,246.20
2023-05-24T17:53:32.164Z,245.85
2023-05-24T17:57:35.510Z,245.60
2023-05-24T18:01:38.540Z,247.25
2023-05-24T18:05:43.180Z,245.35
2023-05-24T18:09:46.317Z,244.85
2023-05-24T18:13:49.309Z,244.50
2023-05-24T18:17:52.298Z,249.25
2023-05-24T18:21:56.758Z,244.50
2023-05-24T18:26:01.177Z,246.00
2023-05-24T18:30:07.849Z,244.95
2023-05-24T18:34:10.992Z,244.80
2023-05-24T18:38:15.536Z,240.90
2023-05-24T18:42:18.600Z,246.30
2023-05-24T18:46:21.694Z,245.77
2023-05-24T18:50:25.034Z,247.10
2023-05-24T18:54:29.590Z,245.40
2023-05-24T18:58:32.577Z,243.40
2023-05-24T19:02:38.477Z,245.57
2023-05-24T19:06:42.040Z,245.40
2023-05-24T19:10:46.540Z,244.80
2023-05-24T19:14:49.627Z,245.75
2023-05-24T19:18:52.642Z,244.70
2023-05-24T19:22:57.114Z,243.85
2023-05-24T19:27:03.228Z,244.50
2023-05-24T19:31:06.592Z,245.60
2023-05-24T19:35:11.699Z,246.00
2023-05-24T19:39:14.692Z,247.90
2023-05-24T19:43:22.095Z,245.60
2023-05-24T19:47:25.091Z,247.85
2023-05-24T19:51:28.845Z,244.75
2023-05-24T19:55:32.597Z,245.70
2023-05-24T19:59:36.974Z,245.43
2023-05-24T20:03:40.028Z,242.60
2023-05-24T20:07:43.203Z,246.00
2023-05-24T20:11:46.411Z,242.70
2023-05-24T20:19:53.709Z,243.10
2023-05-24T20:23:58.493Z,246.75
2023-05-24T20:32:06.939Z,245.10
2023-05-24T20:44:16.867Z,244.60
2023-05-24T20:48:21.307Z,246.05
2023-05-24T20:56:27.520Z,243.30
2023-05-24T21:00:30.554Z,244.40
2023-05-24T21:28:56.134Z,244.90
2023-05-24T21:32:59.216Z,246.60
2023-05-24T21:37:05.037Z,248.10
2023-05-24T21:53:18.400Z,246.00
2023-05-24T21:57:21.397Z,247.90
2023-05-24T22:05:28.061Z,245.70
2023-05-24T22:09:32.543Z,247.63
2023-05-24T22:13:35.551Z,247.50
2023-05-24T22:17:41.079Z,247.75
2023-05-24T22:37:57.130Z,242.20
2023-05-24T22:42:01.734Z,244.60
2023-05-24T22:54:11.172Z,247.30
2023-05-24T22:58:15.611Z,244.80
2023-05-24T23:02:18.645Z,249.20
2023-05-24T23:18:33.812Z,246.50
2023-05-24T23:26:40.732Z,247.90
2023-05-24T23:30:45.131Z,247.00
2023-05-24T23:34:48.136Z,246.15
2023-05-24T23:51:01.385Z,247.20
2023-05-24T23:59:07.667Z,246.50
